Time;durP1;ratioP1;P1;durP2;ratioP2;P2;SDS_P1;SDS_P2;PMS_P1;PMS_P2;Temp;Humidity;BMP_temperature;BMP_pressure;BME280_temperature;BME280_humidity;BME280_pressure;Samples;Min_cycle;Max_cycle;Signal;HPM_P1;HPM_P2
2022/11/06 00:01:11;;;;;;;7.93;5.37;;;5.10;99.90;;;;;;5090435;28;20435;-75
2022/11/06 00:03:37;;;;;;;8.80;5.47;;;5.00;99.90;;;;;;5090434;28;20455;-75
2022/11/06 00:08:58;;;;;;;8.27;5.80;;;5.00;99.90;;;;;;5090631;28;20845;-74
2022/11/06 00:11:23;;;;;;;8.27;5.20;;;5.00;99.90;;;;;;5091150;28;20465;-75
2022/11/06 00:13:51;;;;;;;7.27;5.67;;;5.10;99.90;;;;;;5090854;28;20503;-74
2022/11/06 00:16:17;;;;;;;16.23;5.77;;;5.10;99.90;;;;;;5090843;28;20243;-75
2022/11/06 00:18:44;;;;;;;8.07;4.90;;;5.00;99.90;;;;;;5090169;28;20432;-74
2022/11/06 00:21:15;;;;;;;7.27;5.27;;;5.10;99.90;;;;;;5090861;28;20415;-75
2022/11/06 00:23:41;;;;;;;11.97;7.17;;;5.00;99.90;;;;;;5090516;28;20408;-76
2022/11/06 00:26:09;;;;;;;10.70;5.30;;;4.90;99.90;;;;;;5090408;28;20427;-75
2022/11/06 00:28:35;;;;;;;9.13;5.20;;;4.90;99.90;;;;;;5090321;28;20848;-75
2022/11/06 00:31:06;;;;;;;9.70;6.37;;;4.90;99.90;;;;;;5090479;28;20422;-74
2022/11/06 00:33:32;;;;;;;16.20;6.30;;;5.00;99.90;;;;;;5090276;28;20835;-74
2022/11/06 00:35:58;;;;;;;9.07;5.10;;;5.00;99.90;;;;;;5090100;28;20901;-74
2022/11/06 00:38:24;;;;;;;9.27;5.17;;;5.00;99.90;;;;;;5089804;28;20447;-74
2022/11/06 00:40:49;;;;;;;7.00;5.10;;;5.00;99.90;;;;;;5089690;28;20423;-74
2022/11/06 00:43:15;;;;;;;7.23;5.43;;;5.10;99.90;;;;;;5089743;28;20416;-73
2022/11/06 00:45:41;;;;;;;6.73;4.40;;;5.10;99.90;;;;;;5071277;28;20182;-73
2022/11/06 00:48:06;;;;;;;10.67;4.67;;;5.10;99.90;;;;;;5089585;28;20296;-74
2022/11/06 00:50:32;;;;;;;7.50;5.00;;;5.10;99.90;;;;;;5071187;28;20547;-73
2022/11/06 00:52:58;;;;;;;7.93;4.60;;;5.10;99.90;;;;;;5089738;28;20183;-73
2022/11/06 00:55:23;;;;;;;5.90;4.50;;;5.20;99.90;;;;;;5089480;28;20864;-73
2022/11/06 00:57:49;;;;;;;12.30;4.87;;;5.20;99.90;;;;;;5089602;28;20238;-73
2022/11/06 01:00:16;;;;;;;10.93;5.30;;;5.20;99.90;;;;;;5089358;28;20196;-74
2022/11/06 01:02:44;;;;;;;6.50;5.17;;;5.10;99.90;;;;;;5089383;28;20248;-73
2022/11/06 01:05:10;;;;;;;6.27;3.87;;;5.20;99.90;;;;;;5054833;28;20423;-73
2022/11/06 01:07:35;;;;;;;9.20;4.53;;;5.30;99.90;;;;;;5099570;28;20471;-76
2022/11/06 01:10:02;;;;;;;8.50;4.40;;;5.40;99.90;;;;;;5087936;28;20444;-76
2022/11/06 01:12:30;;;;;;;8.37;4.50;;;5.40;99.90;;;;;;5105683;28;20182;-75
2022/11/06 01:14:56;;;;;;;7.50;4.70;;;5.50;99.90;;;;;;5090529;28;20523;-75
2022/11/06 01:17:21;;;;;;;19.20;6.70;;;5.60;99.90;;;;;;5090141;28;20523;-75
2022/11/06 01:19:47;;;;;;;13.90;7.90;;;5.40;99.90;;;;;;5089560;28;20725;-75
2022/11/06 01:22:13;;;;;;;11.17;8.10;;;5.20;99.90;;;;;;5089176;28;20726;-75
2022/11/06 01:24:38;;;;;;;15.83;8.50;;;5.00;99.90;;;;;;5089000;28;20186;-75
2022/11/06 01:27:04;;;;;;;11.47;8.23;;;4.80;99.90;;;;;;5070617;28;20232;-75
2022/11/06 01:29:30;;;;;;;11.87;8.00;;;4.70;99.90;;;;;;5069924;28;20273;-75
2022/11/06 01:31:55;;;;;;;15.57;9.90;;;4.60;99.90;;;;;;5054079;28;20178;-75
2022/11/06 01:34:21;;;;;;;13.73;9.30;;;4.40;99.90;;;;;;5070698;28;20271;-75
2022/11/06 01:36:47;;;;;;;15.73;9.20;;;4.30;99.90;;;;;;5088861;28;20198;-75
2022/11/06 01:39:14;;;;;;;18.50;11.83;;;4.20;99.90;;;;;;5070636;28;20281;-75
2022/11/06 01:41:43;;;;;;;18.10;10.67;;;4.20;99.90;;;;;;5088933;28;20171;-75
2022/11/06 01:44:39;;;;;;;20.40;11.60;;;4.10;99.90;;;;;;5088710;28;20992;-75
2022/11/06 01:47:19;;;;;;;16.20;10.13;;;4.10;99.90;;;;;;5088715;28;20473;-74
2022/11/06 01:49:45;;;;;;;16.30;9.43;;;4.00;99.90;;;;;;5088857;28;20420;-74
2022/11/06 01:52:13;;;;;;;11.87;8.87;;;4.00;99.90;;;;;;5088642;28;20421;-74
2022/11/06 01:54:40;;;;;;;19.85;10.10;;;4.00;99.90;;;;;;5088695;28;20904;-74
2022/11/06 01:57:07;;;;;;;34.47;10.50;;;3.80;99.90;;;;;;5088547;28;20230;-74
2022/11/06 01:59:37;;;;;;;28.50;10.93;;;3.80;99.90;;;;;;5088786;28;20459;-73
2022/11/06 02:02:03;;;;;;;31.10;10.80;;;3.70;99.90;;;;;;5088483;28;21028;-74
2022/11/06 02:04:39;;;;;;;17.57;10.33;;;3.70;99.90;;;;;;5088491;28;20518;-74
2022/11/06 02:07:06;;;;;;;15.25;10.63;;;3.60;99.90;;;;;;5088296;28;21037;-74
2022/11/06 02:09:33;;;;;;;17.20;10.43;;;3.60;99.90;;;;;;5070147;28;20195;-74
2022/11/06 02:12:29;;;;;;;16.23;10.43;;;3.60;99.90;;;;;;5070440;28;20408;-74
2022/11/06 02:15:20;;;;;;;14.80;8.87;;;3.60;99.90;;;;;;5070247;28;20186;-74
2022/11/06 02:17:50;;;;;;;16.23;9.37;;;3.60;99.90;;;;;;5088562;28;21253;-75
2022/11/06 02:20:31;;;;;;;20.47;12.07;;;3.50;99.90;;;;;;5088472;28;20420;-75
2022/11/06 02:23:20;;;;;;;18.95;11.10;;;3.40;99.90;;;;;;5088611;28;20510;-75
2022/11/06 02:26:00;;;;;;;15.85;10.23;;;3.30;99.90;;;;;;5088386;28;20249;-75
2022/11/06 02:28:33;;;;;;;14.07;8.73;;;3.30;99.90;;;;;;5088280;28;20714;-75
2022/11/06 02:31:01;;;;;;;16.13;9.80;;;3.20;99.90;;;;;;5088312;28;20258;-75
2022/11/06 02:33:39;;;;;;;17.42;9.90;;;3.30;99.90;;;;;;5088514;28;20208;-75
2022/11/06 02:36:11;;;;;;;18.70;8.95;;;3.20;99.90;;;;;;5088234;28;20213;-74
2022/11/06 02:38:40;;;;;;;15.67;9.90;;;3.10;99.90;;;;;;5088261;28;20207;-74
2022/11/06 02:41:11;;;;;;;17.85;8.15;;;3.20;99.90;;;;;;5070901;28;20530;-74
2022/11/06 02:43:44;;;;;;;13.70;9.50;;;3.20;99.90;;;;;;5091830;28;20184;-74
2022/11/06 02:46:36;;;;;;;13.27;9.27;;;3.30;99.90;;;;;;5091853;28;20184;-74
2022/11/06 02:49:11;;;;;;;11.98;7.88;;;3.30;99.90;;;;;;5086930;28;20219;-75
2022/11/06 02:51:43;;;;;;;12.13;8.73;;;3.40;99.90;;;;;;5091968;28;20910;-75
2022/11/06 02:54:10;;;;;;;15.67;9.53;;;3.40;99.90;;;;;;5091738;28;20169;-75
2022/11/06 02:56:40;;;;;;;16.85;9.57;;;3.40;99.90;;;;;;5073434;28;20419;-75
2022/11/06 02:59:32;;;;;;;16.98;9.55;;;3.40;99.90;;;;;;5091635;28;20254;-76
2022/11/06 03:02:03;;;;;;;14.57;8.80;;;3.30;99.90;;;;;;5067635;28;20198;-76
2022/11/06 03:04:39;;;;;;;10.60;7.95;;;3.30;99.90;;;;;;5091716;28;21189;-75
2022/11/06 03:07:19;;;;;;;13.03;8.30;;;3.20;99.90;;;;;;5091737;28;20186;-76
2022/11/06 03:09:47;;;;;;;12.75;7.95;;;3.20;99.90;;;;;;5091657;28;20874;-74
2022/11/06 03:12:29;;;;;;;12.30;7.57;;;3.20;99.90;;;;;;5073712;28;20601;-74
2022/11/06 03:15:13;;;;;;;13.23;7.97;;;3.10;99.90;;;;;;5091759;28;20426;-75
2022/11/06 03:17:39;;;;;;;12.40;8.00;;;3.10;99.90;;;;;;5091533;28;20221;-75
2022/11/06 03:20:20;;;;;;;14.43;7.63;;;3.10;99.90;;;;;;5091531;28;20810;-76
2022/11/06 03:23:10;;;;;;;10.87;7.37;;;3.00;99.90;;;;;;5091765;28;20180;-75
2022/11/06 03:25:50;;;;;;;12.87;8.13;;;3.00;99.90;;;;;;5073636;28;20965;-75
2022/11/06 03:28:38;;;;;;;14.03;8.80;;;2.90;99.90;;;;;;5092795;28;20469;-75
2022/11/06 03:31:13;;;;;;;13.55;8.20;;;2.90;99.90;;;;;;5091640;28;20415;-76
2022/11/06 03:33:56;;;;;;;15.05;8.60;;;2.90;99.90;;;;;;5091724;28;20637;-74
2022/11/06 03:36:27;;;;;;;13.43;8.00;;;3.00;99.90;;;;;;5091618;28;20184;-74
2022/11/06 03:39:01;;;;;;;12.87;8.90;;;2.90;99.90;;;;;;5091476;28;20300;-75
2022/11/06 03:42:03;;;;;;;13.88;9.32;;;2.90;99.90;;;;;;5091047;28;20415;-74
2022/11/06 03:44:31;;;;;;;12.00;7.78;;;2.90;99.90;;;;;;5067879;28;20185;-74
2022/11/06 03:47:02;;;;;;;14.55;7.80;;;2.90;99.90;;;;;;5091001;28;20228;-74
2022/11/06 03:49:38;;;;;;;14.63;9.63;;;2.90;99.90;;;;;;5056407;28;20180;-75
2022/11/06 03:52:10;;;;;;;14.73;9.10;;;2.90;99.90;;;;;;5090740;28;20468;-75
2022/11/06 03:54:43;;;;;;;13.25;8.30;;;3.00;99.90;;;;;;5091328;28;20164;-75
2022/11/06 03:57:13;;;;;;;20.93;8.90;;;3.00;99.90;;;;;;5091552;28;20207;-75
2022/11/06 03:59:43;;;;;;;12.60;7.95;;;3.10;99.90;;;;;;5073210;28;20415;-75
2022/11/06 04:02:13;;;;;;;13.55;8.93;;;3.20;99.90;;;;;;5073422;28;20249;-75
2022/11/06 04:04:49;;;;;;;14.35;8.63;;;3.30;99.90;;;;;;5090764;28;20182;-74
2022/11/06 04:07:19;;;;;;;17.25;9.20;;;3.40;99.90;;;;;;5090522;28;20220;-74
2022/11/06 04:13:56;;;;;;;13.23;7.93;;;3.70;99.90;;;;;;5090635;28;20932;-74
2022/11/06 04:15:32;;;;;;;14.13;8.23;;;3.70;99.90;;;;;;5089621;28;20428;-74
2022/11/06 04:17:58;;;;;;;15.77;8.57;;;3.80;99.90;;;;;;5072028;28;21397;-74
2022/11/06 04:23:33;;;;;;;22.90;8.37;;;3.90;99.90;;;;;;5075841;28;20224;-75
2022/11/06 04:26:34;;;;;;;16.98;8.07;;;4.00;99.90;;;;;;5090163;28;20415;-75
2022/11/06 04:29:17;;;;;;;11.88;8.48;;;4.00;99.90;;;;;;5089852;28;20214;-75
2022/11/06 04:32:20;;;;;;;10.85;7.93;;;4.00;99.90;;;;;;5090039;28;20209;-75
2022/11/06 04:34:55;;;;;;;12.30;9.10;;;3.90;99.90;;;;;;5021765;28;20180;-75
2022/11/06 04:37:40;;;;;;;12.67;8.13;;;3.70;99.90;;;;;;5071385;28;20211;-75
2022/11/06 04:40:16;;;;;;;11.38;7.72;;;3.50;99.90;;;;;;5090063;28;20415;-75
2022/11/06 04:43:00;;;;;;;14.00;7.95;;;3.50;99.90;;;;;;5090164;28;20297;-75
2022/11/06 04:45:35;;;;;;;11.50;7.90;;;3.60;99.90;;;;;;5089838;28;20173;-76
2022/11/06 04:48:03;;;;;;;12.38;7.18;;;4.00;99.90;;;;;;5089851;28;20221;-75
2022/11/06 04:50:35;;;;;;;11.23;6.87;;;4.10;99.90;;;;;;5071553;28;20190;-75
2022/11/06 04:53:02;;;;;;;14.70;8.23;;;4.30;99.90;;;;;;5072028;28;20408;-75
2022/11/06 04:55:29;;;;;;;16.43;9.20;;;4.40;99.90;;;;;;5071763;28;20182;-74
2022/11/06 04:57:55;;;;;;;13.70;8.38;;;4.40;99.90;;;;;;5089842;28;20439;-75
2022/11/06 05:00:20;;;;;;;13.53;8.47;;;4.40;99.90;;;;;;5090470;28;20200;-79
2022/11/06 05:02:46;;;;;;;15.50;9.10;;;4.40;99.90;;;;;;5090973;28;20569;-78
2022/11/06 05:05:12;;;;;;;14.83;8.20;;;4.50;99.90;;;;;;5055457;28;20202;-75
2022/11/06 05:07:37;;;;;;;15.37;8.43;;;4.50;99.90;;;;;;5071746;28;20754;-74
2022/11/06 05:10:04;;;;;;;14.70;8.73;;;4.50;99.90;;;;;;5089907;28;20590;-75
2022/11/06 05:12:29;;;;;;;14.60;8.43;;;4.50;99.90;;;;;;5089661;28;20178;-75
2022/11/06 05:14:55;;;;;;;16.27;8.33;;;4.60;99.90;;;;;;5089689;28;20408;-74
2022/11/06 05:17:20;;;;;;;13.00;7.63;;;4.60;99.90;;;;;;5089345;28;20226;-75
2022/11/06 05:19:46;;;;;;;13.80;8.70;;;4.60;99.90;;;;;;5054710;28;20193;-76
2022/11/06 05:24:55;;;;;;;22.73;7.27;;;4.70;99.90;;;;;;5073802;28;20236;-73
2022/11/06 05:27:21;;;;;;;11.63;7.50;;;4.80;99.90;;;;;;5088739;28;20468;-75
2022/11/06 05:29:46;;;;;;;13.30;8.60;;;5.00;99.90;;;;;;5054387;28;20821;-75
2022/11/06 05:32:12;;;;;;;19.53;9.07;;;5.00;99.90;;;;;;5054240;28;20271;-75
2022/11/06 05:34:38;;;;;;;16.20;9.40;;;5.10;99.90;;;;;;5088948;28;20175;-75
2022/11/06 05:37:03;;;;;;;14.63;8.73;;;5.10;99.90;;;;;;5054478;28;20182;-75
2022/11/06 05:39:29;;;;;;;11.20;7.33;;;5.00;99.90;;;;;;5071150;28;20186;-75
2022/11/06 05:41:54;;;;;;;6.43;5.63;;;4.30;99.90;;;;;;5088850;28;20265;-74
2022/11/06 05:44:20;;;;;;;8.20;6.10;;;3.80;99.90;;;;;;5088893;28;20289;-81
2022/11/06 05:46:46;;;;;;;27.03;6.47;;;3.50;99.90;;;;;;5070615;28;20237;-75
2022/11/06 05:49:11;;;;;;;39.30;6.53;;;3.10;99.90;;;;;;5070606;28;20270;-77
2022/11/06 05:51:37;;;;;;;59.50;7.97;;;2.70;99.90;;;;;;5088661;28;20186;-76
2022/11/06 05:54:03;;;;;;;83.80;8.20;;;2.60;99.90;;;;;;5070720;28;20181;-77
2022/11/06 05:56:28;;;;;;;146.37;13.13;;;2.40;99.90;;;;;;5088962;28;20184;-78
2022/11/06 05:58:54;;;;;;;145.50;9.73;;;2.10;99.90;;;;;;5089254;28;20783;-76
2022/11/06 06:01:19;;;;;;;139.73;9.60;;;2.10;99.90;;;;;;5070429;28;20213;-76
2022/11/06 06:03:45;;;;;;;57.03;8.10;;;2.00;99.90;;;;;;5070576;28;20178;-76
2022/11/06 06:06:11;;;;;;;187.97;10.27;;;1.90;99.90;;;;;;5088699;28;20193;-76
2022/11/06 06:08:36;;;;;;;185.03;11.43;;;1.80;99.90;;;;;;5069983;28;20731;-74
2022/11/06 06:11:08;;;;;;;157.97;9.80;;;1.80;99.90;;;;;;5088548;28;20211;-76
2022/11/06 06:13:37;;;;;;;282.35;13.75;;;1.80;99.90;;;;;;5070004;28;20289;-77
2022/11/06 06:16:03;;;;;;;235.90;14.63;;;1.70;99.90;;;;;;5071376;28;20181;-76
2022/11/06 06:18:29;;;;;;;159.85;9.40;;;1.70;99.90;;;;;;5092211;28;20207;-76
2022/11/06 06:20:57;;;;;;;220.87;14.90;;;1.60;99.90;;;;;;5057408;28;20188;-77
2022/11/06 06:23:22;;;;;;;163.38;12.13;;;1.60;99.90;;;;;;5092439;28;20173;-77
2022/11/06 06:25:48;;;;;;;125.87;11.10;;;1.50;99.90;;;;;;5057329;28;20260;-77
2022/11/06 06:28:14;;;;;;;166.83;9.90;;;1.50;99.90;;;;;;5057041;28;20270;-76
2022/11/06 06:30:39;;;;;;;296.63;12.23;;;1.60;99.90;;;;;;5073862;28;20179;-76
2022/11/06 06:33:05;;;;;;;237.33;15.53;;;1.50;99.90;;;;;;5094692;28;20187;-76
2022/11/06 06:35:32;;;;;;;191.35;10.57;;;1.50;99.90;;;;;;5091985;28;20206;-77
2022/11/06 06:37:58;;;;;;;127.82;12.82;;;1.60;99.90;;;;;;5091888;28;20875;-76
2022/11/06 06:40:25;;;;;;;90.03;12.67;;;1.70;99.90;;;;;;5073586;28;20305;-77
2022/11/06 06:42:51;;;;;;;107.75;11.30;;;1.70;99.90;;;;;;5092135;28;20580;-77
2022/11/06 06:45:16;;;;;;;140.87;10.70;;;1.60;99.90;;;;;;5073802;28;20192;-77
2022/11/06 06:47:42;;;;;;;147.17;11.53;;;1.50;99.90;;;;;;5073630;28;20236;-76
2022/11/06 06:50:08;;;;;;;20.47;5.77;;;1.20;99.90;;;;;;5103090;28;20186;-77
2022/11/06 06:52:33;;;;;;;22.08;6.93;;;1.20;99.90;;;;;;5108412;28;20208;-76
2022/11/06 06:54:59;;;;;;;19.43;6.13;;;1.30;99.90;;;;;;5079667;28;20214;-78
2022/11/06 06:57:25;;;;;;;29.47;8.70;;;1.50;99.90;;;;;;5059158;28;20211;-78
2022/11/06 06:59:50;;;;;;;8.30;7.10;;;1.60;99.90;;;;;;5060273;28;20234;-78
2022/11/06 07:02:16;;;;;;;27.50;8.00;;;1.70;99.90;;;;;;5077307;28;20206;-78
2022/11/06 07:04:41;;;;;;;18.57;8.10;;;1.70;99.90;;;;;;5060348;28;20199;-78
2022/11/06 07:07:07;;;;;;;8.87;7.70;;;1.80;99.90;;;;;;5076104;28;20551;-78
2022/11/06 07:09:32;;;;;;;16.83;11.40;;;1.90;99.90;;;;;;5059978;28;20184;-77
2022/11/06 07:11:58;;;;;;;14.10;11.60;;;2.00;99.90;;;;;;5077268;28;20188;-78
2022/11/06 07:14:24;;;;;;;16.63;11.83;;;2.10;99.90;;;;;;5095436;28;20180;-77
2022/11/06 07:16:50;;;;;;;11.50;10.30;;;2.30;99.90;;;;;;5096603;28;20454;-78
2022/11/06 07:19:15;;;;;;;14.87;9.40;;;2.40;99.90;;;;;;5060843;28;20665;-78
2022/11/06 07:21:41;;;;;;;11.10;9.27;;;2.50;99.90;;;;;;5077028;28;20264;-77
2022/11/06 07:24:07;;;;;;;14.60;9.57;;;2.70;99.90;;;;;;5060653;28;20192;-77
2022/11/06 07:26:32;;;;;;;11.13;7.03;;;3.00;99.90;;;;;;5058838;28;20433;-77
2022/11/06 07:28:58;;;;;;;11.60;7.27;;;3.30;99.90;;;;;;5073145;28;20611;-75
2022/11/06 07:31:23;;;;;;;10.07;6.20;;;3.60;99.90;;;;;;5093584;28;20188;-77
2022/11/06 07:33:49;;;;;;;11.33;6.20;;;3.90;99.90;;;;;;5074224;28;20181;-77
2022/11/06 07:36:15;;;;;;;12.10;7.60;;;4.10;99.90;;;;;;5057148;28;20190;-77
2022/11/06 07:38:41;;;;;;;12.57;7.27;;;4.20;99.90;;;;;;5073396;28;20256;-77
2022/11/06 07:41:10;;;;;;;11.37;6.73;;;4.50;99.90;;;;;;5091699;28;20192;-77
2022/11/06 07:43:36;;;;;;;11.07;6.33;;;4.60;99.90;;;;;;5073235;28;20522;-77
2022/11/06 07:46:05;;;;;;;7.13;5.40;;;4.80;99.90;;;;;;5075413;28;20458;-78
2022/11/06 07:48:32;;;;;;;8.00;5.97;;;5.00;99.90;;;;;;5094081;28;20905;-77
2022/11/06 07:51:00;;;;;;;9.47;6.07;;;5.10;99.90;;;;;;5076031;28;20515;-78
2022/11/06 07:53:26;;;;;;;8.90;5.40;;;5.20;99.90;;;;;;5094869;28;20420;-78
2022/11/06 07:55:53;;;;;;;9.70;6.00;;;5.40;99.90;;;;;;5075946;28;20424;-78
2022/11/06 07:58:20;;;;;;;7.50;5.13;;;5.50;99.90;;;;;;5093548;28;20231;-77
2022/11/06 08:00:51;;;;;;;9.37;6.07;;;5.60;99.90;;;;;;5075207;28;20547;-77
2022/11/06 08:03:17;;;;;;;8.60;6.10;;;5.80;99.90;;;;;;5092643;28;20475;-77
2022/11/06 08:05:43;;;;;;;7.90;5.17;;;6.00;99.90;;;;;;5092428;28;20489;-78
2022/11/06 08:08:09;;;;;;;7.10;5.00;;;6.10;99.90;;;;;;5092515;28;20486;-78
2022/11/06 08:10:39;;;;;;;6.87;5.60;;;6.40;99.90;;;;;;5093284;28;20492;-78
2022/11/06 08:13:06;;;;;;;6.50;5.50;;;6.70;99.90;;;;;;5094415;28;20890;-78
2022/11/06 08:15:32;;;;;;;5.90;4.83;;;7.30;99.90;;;;;;5095430;28;20523;-78
2022/11/06 08:17:58;;;;;;;7.57;5.23;;;7.40;99.90;;;;;;5094936;28;20501;-78
2022/11/06 08:20:24;;;;;;;8.13;4.90;;;7.80;99.90;;;;;;5076112;28;20880;-78
2022/11/06 08:22:49;;;;;;;6.70;5.17;;;8.30;99.90;;;;;;5092601;28;20535;-78
2022/11/06 08:25:15;;;;;;;7.43;4.40;;;8.40;99.90;;;;;;5093514;28;20198;-78
2022/11/06 08:27:41;;;;;;;6.20;4.37;;;8.60;99.90;;;;;;5074052;28;20227;-78
2022/11/06 08:30:07;;;;;;;3.20;2.90;;;9.00;99.90;;;;;;5091180;28;20228;-75
2022/11/06 08:32:32;;;;;;;4.57;3.00;;;9.70;99.90;;;;;;5072351;28;20187;-78
2022/11/06 08:34:58;;;;;;;4.10;3.10;;;10.50;99.90;;;;;;5056025;28;20424;-78
2022/11/06 08:37:23;;;;;;;3.17;2.83;;;11.90;99.90;;;;;;5072425;28;20214;-75
2022/11/06 08:39:49;;;;;;;3.53;2.60;;;12.70;99.90;;;;;;5089626;28;20426;-77
2022/11/06 08:42:15;;;;;;;3.90;3.03;;;13.60;99.90;;;;;;5090178;28;20272;-77
2022/11/06 08:44:41;;;;;;;2.70;2.50;;;14.30;98.20;;;;;;5089915;28;20201;-78
2022/11/06 08:47:07;;;;;;;2.60;2.40;;;15.10;99.90;;;;;;5089177;28;20189;-77
2022/11/06 08:49:33;;;;;;;2.83;2.63;;;16.10;93.40;;;;;;5089778;28;20477;-76
2022/11/06 08:51:59;;;;;;;4.97;3.63;;;17.20;93.50;;;;;;5054476;28;20440;-77
2022/11/06 08:54:24;;;;;;;29.23;26.40;;;17.80;87.90;;;;;;5089215;28;20185;-77
2022/11/06 08:56:50;;;;;;;16.90;14.13;;;17.20;87.10;;;;;;5070840;28;20566;-77
2022/11/06 08:59:15;;;;;;;7.10;6.40;;;17.00;85.20;;;;;;5070238;28;20215;-77
2022/11/06 09:01:41;;;;;;;7.20;6.50;;;17.00;85.00;;;;;;5070404;28;20198;-77
2022/11/06 09:04:07;;;;;;;6.80;5.70;;;17.20;83.50;;;;;;5070683;28;20194;-78
2022/11/06 09:06:32;;;;;;;4.90;4.50;;;17.40;84.10;;;;;;5070771;28;20196;-77
2022/11/06 09:08:58;;;;;;;5.90;5.37;;;17.80;81.90;;;;;;5070664;28;20222;-77
2022/11/06 09:11:24;;;;;;;6.70;5.43;;;17.80;81.90;;;;;;5088919;28;20206;-75
2022/11/06 09:13:50;;;;;;;8.60;6.77;;;17.40;82.10;;;;;;5070955;28;21302;-77
2022/11/06 09:16:15;;;;;;;7.30;6.60;;;17.10;81.30;;;;;;5070053;28;20191;-77
2022/11/06 09:18:41;;;;;;;6.70;6.00;;;16.40;83.70;;;;;;5088262;28;20760;-76
2022/11/06 09:21:07;;;;;;;6.13;5.60;;;16.40;86.00;;;;;;5069730;28;20288;-77
2022/11/06 09:23:33;;;;;;;9.00;6.80;;;15.90;85.70;;;;;;5088529;28;20433;-77
2022/11/06 09:25:59;;;;;;;7.63;6.70;;;15.80;86.50;;;;;;5070287;28;20437;-77
2022/11/06 09:28:24;;;;;;;7.23;6.20;;;15.10;87.60;;;;;;5088001;28;20480;-77
2022/11/06 09:30:50;;;;;;;8.33;7.47;;;15.00;88.70;;;;;;5088004;28;20195;-76
2022/11/06 09:33:16;;;;;;;8.40;7.37;;;15.10;90.30;;;;;;5069772;28;20175;-77
2022/11/06 09:35:42;;;;;;;8.83;7.27;;;14.50;90.30;;;;;;5088433;28;20262;-78
2022/11/06 09:38:11;;;;;;;8.03;6.80;;;14.00;93.00;;;;;;5088490;28;20208;-76
2022/11/06 09:40:40;;;;;;;9.43;7.60;;;13.20;92.70;;;;;;5070359;28;20911;-76
2022/11/06 09:43:32;;;;;;;10.50;6.77;;;12.70;96.40;;;;;;5070242;28;20931;-76
2022/11/06 09:46:12;;;;;;;11.90;7.70;;;12.50;96.50;;;;;;5087822;28;20427;-76
2022/11/06 09:48:41;;;;;;;8.40;7.60;;;12.00;99.10;;;;;;5087888;28;20466;-78
2022/11/06 09:51:42;;;;;;;7.53;6.73;;;11.90;99.90;;;;;;5071317;28;20893;-81
2022/11/06 09:54:33;;;;;;;9.30;6.50;;;12.60;99.00;;;;;;5085390;28;20439;-80
2022/11/06 09:57:10;;;;;;;10.20;7.67;;;12.90;98.90;;;;;;5091545;28;20413;-77
2022/11/06 09:59:40;;;;;;;9.07;7.67;;;13.00;98.20;;;;;;5091905;28;20414;-77
2022/11/06 10:02:23;;;;;;;27.83;9.43;;;12.80;99.10;;;;;;5091327;28;20434;-77
2022/11/06 10:05:03;;;;;;;13.03;9.53;;;12.30;99.50;;;;;;5091735;28;20405;-76
2022/11/06 10:07:32;;;;;;;8.87;7.80;;;12.40;99.90;;;;;;5073979;28;20524;-79
2022/11/06 10:10:00;;;;;;;11.47;10.27;;;11.90;99.90;;;;;;5073962;28;20575;-79
2022/11/06 10:12:47;;;;;;;8.83;7.27;;;12.50;99.90;;;;;;5073641;28;20430;-80
2022/11/06 10:15:25;;;;;;;7.60;6.77;;;12.50;99.90;;;;;;5094445;28;21169;-79
2022/11/06 10:18:00;;;;;;;10.83;9.00;;;13.20;99.90;;;;;;5094097;28;20437;-79
2022/11/06 10:20:49;;;;;;;15.90;11.23;;;14.00;99.10;;;;;;5094858;28;20451;-79
2022/11/06 10:23:22;;;;;;;18.20;13.93;;;14.30;98.30;;;;;;5093650;28;20437;-78
2022/11/06 10:26:13;;;;;;;26.43;17.40;;;14.50;97.00;;;;;;5093659;28;20932;-77
2022/11/06 10:28:44;;;;;;;12.90;9.83;;;14.50;98.10;;;;;;5092455;28;20827;-77
2022/11/06 10:31:39;;;;;;;9.10;8.17;;;14.80;97.90;;;;;;5092735;28;20397;-77
2022/11/06 10:34:12;;;;;;;17.33;15.23;;;14.50;97.80;;;;;;5093543;28;20479;-80
2022/11/06 10:37:26;;;;;;;9.77;6.70;;;14.70;98.80;;;;;;5074873;28;20431;-77
2022/11/06 10:39:54;;;;;;;6.57;5.50;;;14.80;97.70;;;;;;5070884;28;20443;-77
2022/11/06 10:42:29;;;;;;;6.60;6.00;;;14.80;97.90;;;;;;5093000;28;20474;-77
2022/11/06 10:45:13;;;;;;;6.07;5.50;;;14.80;98.60;;;;;;5074988;28;20806;-77
2022/11/06 10:47:50;;;;;;;3.53;3.23;;;14.60;98.90;;;;;;5058958;28;20526;-77
2022/11/06 10:50:17;;;;;;;2.03;1.93;;;14.70;96.70;;;;;;5094452;28;20419;-78
2022/11/06 10:53:07;;;;;;;2.80;2.07;;;14.40;94.70;;;;;;5094473;28;20435;-77
2022/11/06 10:55:55;;;;;;;2.23;2.13;;;13.50;95.30;;;;;;5093555;28;20916;-78
2022/11/06 10:58:25;;;;;;;1.97;1.80;;;12.90;95.90;;;;;;5093171;28;20436;-77
2022/11/06 11:00:53;;;;;;;2.07;1.97;;;12.30;96.40;;;;;;5074851;28;20924;-77
2022/11/06 11:03:30;;;;;;;1.80;1.70;;;12.10;97.80;;;;;;5092507;28;20420;-77
2022/11/06 11:05:55;;;;;;;2.70;2.50;;;12.40;99.90;;;;;;5074018;28;20400;-78
2022/11/06 11:08:39;;;;;;;2.80;2.00;;;12.60;99.90;;;;;;5094927;28;20467;-80
2022/11/06 11:11:16;;;;;;;2.20;2.00;;;12.70;97.80;;;;;;5091588;28;20585;-77
2022/11/06 11:14:03;;;;;;;2.67;2.47;;;13.00;99.90;;;;;;5075585;28;20432;-79
2022/11/06 11:16:33;;;;;;;2.00;1.90;;;13.00;98.60;;;;;;5086014;28;20428;-78
2022/11/06 11:19:20;;;;;;;2.10;1.90;;;12.80;97.00;;;;;;5076230;28;20446;-78
2022/11/06 11:21:56;;;;;;;1.87;1.70;;;12.90;99.90;;;;;;5093501;28;20424;-79
2022/11/06 11:24:22;;;;;;;1.60;1.50;;;13.10;97.90;;;;;;5092781;28;20836;-78
2022/11/06 11:26:51;;;;;;;6.83;4.73;;;13.30;96.40;;;;;;5094315;28;20470;-79
2022/11/06 11:29:26;;;;;;;1.97;1.30;;;13.40;95.70;;;;;;5075429;28;20300;-78
2022/11/06 11:32:05;;;;;;;1.30;1.20;;;13.30;95.30;;;;;;5075188;28;20857;-79
2022/11/06 11:34:36;;;;;;;5.10;4.53;;;13.20;98.20;;;;;;5058565;28;21118;-79
2022/11/06 11:37:04;;;;;;;6.30;4.67;;;13.00;99.90;;;;;;5074276;28;20420;-79
2022/11/06 11:39:36;;;;;;;6.10;5.47;;;13.10;99.90;;;;;;5092582;28;21070;-78
2022/11/06 11:42:27;;;;;;;6.30;5.67;;;13.00;99.90;;;;;;5092236;28;20946;-78
2022/11/06 11:45:11;;;;;;;6.10;4.90;;;12.70;99.90;;;;;;5091512;28;20423;-79
2022/11/06 11:47:42;;;;;;;5.73;5.00;;;12.60;99.90;;;;;;5073280;28;20466;-79
2022/11/06 11:50:28;;;;;;;9.17;7.20;;;12.30;99.90;;;;;;5091481;28;20439;-78
2022/11/06 11:53:18;;;;;;;10.07;6.73;;;12.30;99.90;;;;;;5056754;28;20473;-79
2022/11/06 11:55:46;;;;;;;6.37;5.30;;;12.20;99.90;;;;;;5091410;28;20411;-78
2022/11/06 11:58:25;;;;;;;9.47;6.33;;;12.10;99.90;;;;;;5090463;28;20453;-78
2022/11/06 12:01:03;;;;;;;7.57;6.27;;;12.00;99.90;;;;;;5090031;28;20447;-79
2022/11/06 12:03:39;;;;;;;30.87;20.37;;;11.90;99.90;;;;;;5056306;28;20512;-79
2022/11/06 12:06:11;;;;;;;7.90;6.53;;;12.10;99.90;;;;;;5092787;28;20532;-79
2022/11/06 12:08:46;;;;;;;9.40;6.37;;;12.00;99.90;;;;;;5074598;28;20561;-79
2022/11/06 12:11:18;;;;;;;6.90;6.20;;;12.40;99.90;;;;;;5092793;28;20406;-79
2022/11/06 12:13:44;;;;;;;7.83;6.40;;;12.70;99.90;;;;;;5091734;28;20448;-79
2022/11/06 12:16:15;;;;;;;7.20;4.57;;;12.80;99.90;;;;;;5074101;28;20463;-79
2022/11/06 12:18:54;;;;;;;5.40;4.57;;;13.00;99.90;;;;;;5073664;28;21039;-79
2022/11/06 12:21:26;;;;;;;7.80;4.43;;;13.50;99.90;;;;;;5073196;28;20464;-79
2022/11/06 12:23:56;;;;;;;5.77;5.17;;;13.50;99.90;;;;;;5073258;28;20442;-79
2022/11/06 12:26:28;;;;;;;4.63;3.97;;;13.70;99.90;;;;;;5091753;28;20837;-79
2022/11/06 12:29:03;;;;;;;5.27;4.00;;;14.20;99.90;;;;;;5073153;28;20476;-79
2022/11/06 12:31:46;;;;;;;113.03;54.03;;;14.30;99.90;;;;;;5074674;28;20416;-79
2022/11/06 12:34:27;;;;;;;6.93;5.50;;;14.10;99.90;;;;;;5073127;28;20852;-79
2022/11/06 12:37:23;;;;;;;7.57;6.07;;;13.90;99.90;;;;;;5073016;28;20851;-80
2022/11/06 12:40:03;;;;;;;6.67;5.87;;;14.00;99.90;;;;;;5072115;28;21016;-79
2022/11/06 12:42:30;;;;;;;2.73;1.90;;;13.90;99.90;;;;;;5073180;28;20427;-79
2022/11/06 12:44:56;;;;;;;3.70;2.83;;;13.60;93.90;;;;;;5091462;28;20470;-79
2022/11/06 12:47:52;;;;;;;4.57;3.57;;;13.60;99.90;;;;;;5090663;28;20472;-79
2022/11/06 12:50:29;;;;;;;2.03;1.70;;;13.50;99.90;;;;;;5072680;28;20186;-79
2022/11/06 12:53:07;;;;;;;1.80;1.47;;;13.30;93.90;;;;;;5090865;28;20407;-79
2022/11/06 12:55:39;;;;;;;1.80;1.43;;;13.20;93.10;;;;;;5071845;28;20427;-79
2022/11/06 12:58:17;;;;;;;1.27;1.10;;;13.00;91.70;;;;;;5090275;28;20432;-80
2022/11/06 13:01:06;;;;;;;1.20;1.10;;;12.90;92.50;;;;;;5090556;28;20427;-79
2022/11/06 13:04:00;;;;;;;1.30;1.10;;;12.90;93.30;;;;;;5073604;28;20441;-80
2022/11/06 13:06:35;;;;;;;1.10;0.97;;;12.70;94.10;;;;;;5076276;28;20447;-81
2022/11/06 13:09:12;;;;;;;1.73;1.23;;;12.70;94.20;;;;;;5073940;28;20556;-80
2022/11/06 13:11:40;;;;;;;1.40;1.30;;;12.50;92.10;;;;;;5074470;28;20892;-81
2022/11/06 13:14:46;;;;;;;1.00;0.90;;;12.60;95.30;;;;;;5093857;28;20440;-80
2022/11/06 13:17:24;;;;;;;1.40;1.00;;;12.70;97.40;;;;;;5093337;28;20398;-80
2022/11/06 13:19:56;;;;;;;1.00;0.80;;;12.60;93.90;;;;;;5092940;28;20407;-80